Time;durP1;ratioP1;P1;durP2;ratioP2;P2;SDS_P1;SDS_P2;PMS_P1;PMS_P2;Temp;Humidity;BMP_temperature;BMP_pressure;BME280_temperature;BME280_humidity;BME280_pressure;Samples;Min_cycle;Max_cycle;Signal;HPM_P1;HPM_P2
2021/01/23 00:01:39;;;;;;;35.42;15.63;;;;;;;0.52;100.00;99629.78;5227983;28;20082;-77
2021/01/23 00:04:09;;;;;;;39.42;14.80;;;;;;;0.53;100.00;99634.09;5227883;28;20119;-77
2021/01/23 00:06:40;;;;;;;29.98;14.13;;;;;;;0.49;100.00;99635.31;5226376;28;20442;-77
2021/01/23 00:09:10;;;;;;;33.42;13.85;;;;;;;0.48;100.00;99636.28;5228190;28;20407;-77
2021/01/23 00:11:41;;;;;;;29.33;14.00;;;;;;;0.49;100.00;99632.66;5225117;28;20048;-77
2021/01/23 00:14:11;;;;;;;39.60;15.48;;;;;;;0.50;100.00;99635.19;5216909;28;20349;-77
2021/01/23 00:16:42;;;;;;;27.92;13.20;;;;;;;0.51;100.00;99623.66;5227618;28;20175;-77
2021/01/23 00:19:12;;;;;;;40.10;15.50;;;;;;;0.48;100.00;99623.91;5226592;28;20459;-77
2021/01/23 00:21:43;;;;;;;26.35;13.10;;;;;;;0.47;100.00;99618.78;5227684;28;20048;-78
2021/01/23 00:24:13;;;;;;;29.48;13.70;;;;;;;0.55;100.00;99608.38;5234566;28;20063;-76
2021/01/23 00:26:45;;;;;;;32.53;14.43;;;;;;;0.57;100.00;99605.63;5228551;28;20434;-77
2021/01/23 00:29:17;;;;;;;35.15;13.55;;;;;;;0.58;100.00;99599.38;5226636;28;20025;-77
2021/01/23 00:31:47;;;;;;;29.98;13.20;;;;;;;0.65;100.00;99597.88;5227773;28;20534;-77
2021/01/23 00:34:17;;;;;;;35.28;14.27;;;;;;;0.67;100.00;99588.84;5227257;28;20025;-77
2021/01/23 00:36:48;;;;;;;41.67;13.43;;;;;;;0.70;100.00;99591.25;5227390;28;20024;-77
2021/01/23 00:39:18;;;;;;;37.17;13.18;;;;;;;0.76;100.00;99585.41;5227491;28;20104;-77
2021/01/23 00:41:49;;;;;;;30.73;12.80;;;;;;;0.85;100.00;99596.13;5227258;28;20134;-78
2021/01/23 00:44:19;;;;;;;28.55;12.05;;;;;;;0.86;100.00;99595.19;5226931;28;20123;-77
2021/01/23 00:46:50;;;;;;;25.63;12.07;;;;;;;0.87;100.00;99608.25;5227204;28;20040;-77
2021/01/23 00:49:22;;;;;;;31.40;12.30;;;;;;;0.88;100.00;99599.34;5226433;28;20031;-78
2021/01/23 00:51:53;;;;;;;33.40;13.38;;;;;;;0.98;100.00;99596.72;5227060;28;20062;-77
2021/01/23 00:54:23;;;;;;;24.90;11.55;;;;;;;1.07;100.00;99597.72;5226510;28;20028;-77
2021/01/23 00:56:54;;;;;;;28.17;12.25;;;;;;;1.12;100.00;99596.34;5227075;28;20025;-77
2021/01/23 00:59:25;;;;;;;28.95;12.07;;;;;;;1.19;100.00;99594.81;5227030;28;20446;-78
2021/01/23 01:01:55;;;;;;;30.00;12.10;;;;;;;1.21;100.00;99600.81;5227136;28;20020;-77
2021/01/23 01:04:26;;;;;;;31.30;12.63;;;;;;;1.25;100.00;99601.34;5227309;28;20025;-77
2021/01/23 01:06:56;;;;;;;25.95;11.73;;;;;;;1.32;100.00;99594.56;5226745;28;20086;-77
2021/01/23 01:09:26;;;;;;;28.23;12.35;;;;;;;1.34;100.00;99597.06;5226945;28;20111;-77
2021/01/23 01:11:57;;;;;;;21.35;10.25;;;;;;;1.36;100.00;99592.50;5221934;28;20473;-78
2021/01/23 01:14:27;;;;;;;22.58;10.75;;;;;;;1.34;100.00;99594.44;5217137;28;20029;-78
2021/01/23 01:16:58;;;;;;;23.92;10.73;;;;;;;1.36;100.00;99592.50;5227115;28;20036;-78
2021/01/23 01:19:28;;;;;;;27.45;10.90;;;;;;;1.31;100.00;99595.56;5226927;28;20310;-77
2021/01/23 01:21:59;;;;;;;23.65;10.07;;;;;;;1.31;100.00;99592.91;5225860;28;20020;-77
2021/01/23 01:24:29;;;;;;;26.73;10.45;;;;;;;1.27;100.00;99594.97;5232896;28;20390;-78
2021/01/23 01:26:59;;;;;;;32.08;11.68;;;;;;;1.29;100.00;99590.38;5227304;28;20555;-77
2021/01/23 01:29:30;;;;;;;23.52;10.43;;;;;;;1.31;100.00;99592.06;5226994;28;20021;-77
2021/01/23 01:32:00;;;;;;;22.10;10.40;;;;;;;1.32;100.00;99596.38;5227414;28;20573;-77
2021/01/23 01:34:31;;;;;;;23.30;10.48;;;;;;;1.33;100.00;99595.41;5226402;28;20029;-77
2021/01/23 01:37:01;;;;;;;25.30;9.48;;;;;;;1.36;100.00;99595.13;5226418;28;20033;-77
2021/01/23 01:39:32;;;;;;;25.45;11.07;;;;;;;1.36;100.00;99593.31;5226879;28;20388;-77
2021/01/23 01:42:04;;;;;;;25.80;10.88;;;;;;;1.44;100.00;99590.81;5227400;28;20051;-78
2021/01/23 01:44:34;;;;;;;28.98;10.52;;;;;;;1.49;100.00;99587.75;5226571;28;20040;-77
2021/01/23 01:47:05;;;;;;;22.67;10.20;;;;;;;1.49;100.00;99590.41;5227628;28;20017;-77
2021/01/23 01:49:36;;;;;;;23.85;9.93;;;;;;;1.50;100.00;99589.41;5227373;28;20345;-77
2021/01/23 01:52:06;;;;;;;30.55;10.02;;;;;;;1.58;100.00;99586.94;5225701;28;20029;-78
2021/01/23 01:54:37;;;;;;;25.90;9.98;;;;;;;1.55;100.00;99581.91;5225788;28;20025;-77
2021/01/23 01:57:07;;;;;;;26.52;10.60;;;;;;;1.60;100.00;99587.59;5225795;28;20061;-77
2021/01/23 01:59:38;;;;;;;21.85;10.20;;;;;;;1.64;100.00;99591.66;5224789;28;20037;-77
2021/01/23 02:02:30;;;;;;;18.98;8.85;;;;;;;1.65;100.00;99590.66;5226408;28;20024;-78
2021/01/23 02:05:10;;;;;;;18.55;8.80;;;;;;;1.66;100.00;99589.72;5226189;28;20037;-77
2021/01/23 02:07:51;;;;;;;23.30;9.20;;;;;;;1.70;100.00;99596.38;5225076;28;20447;-77
2021/01/23 02:10:43;;;;;;;17.42;8.73;;;;;;;1.70;100.00;99595.53;5224997;28;20319;-77
2021/01/23 02:13:20;;;;;;;21.63;9.13;;;;;;;1.68;100.00;99595.69;5224204;28;20104;-78
2021/01/23 02:16:00;;;;;;;17.25;8.85;;;;;;;1.72;100.00;99596.25;5225121;28;20029;-77
2021/01/23 02:18:38;;;;;;;27.83;8.70;;;;;;;1.73;100.00;99588.16;5225582;28;20553;-78
2021/01/23 02:21:10;;;;;;;22.17;9.05;;;;;;;1.78;100.00;99583.28;5224423;28;20067;-78
2021/01/23 02:23:45;;;;;;;15.25;7.80;;;;;;;1.86;100.00;99589.69;5225232;28;20576;-78
2021/01/23 02:26:35;;;;;;;18.77;7.95;;;;;;;1.92;100.00;99589.13;5230953;28;20057;-78
2021/01/23 02:29:22;;;;;;;17.30;7.13;;;;;;;1.93;100.00;99588.97;5225484;28;20021;-77
2021/01/23 02:31:58;;;;;;;20.85;7.25;;;;;;;1.99;100.00;99595.50;5225859;28;20032;-78
2021/01/23 02:34:30;;;;;;;15.85;7.38;;;;;;;2.10;100.00;99590.06;5224525;28;20028;-78
2021/01/23 02:37:02;;;;;;;18.38;7.40;;;;;;;2.16;100.00;99594.81;5225927;28;20044;-78
2021/01/23 02:39:34;;;;;;;18.27;7.43;;;;;;;2.25;100.00;99588.63;5225083;28;20024;-78
2021/01/23 02:42:05;;;;;;;20.58;7.03;;;;;;;2.14;100.00;99587.97;5226015;28;20025;-78
2021/01/23 02:44:36;;;;;;;16.30;6.63;;;;;;;2.20;100.00;99585.56;5224585;28;20031;-78
2021/01/23 02:47:07;;;;;;;18.33;7.30;;;;;;;2.20;100.00;99588.22;5225302;28;20028;-77
2021/01/23 02:49:37;;;;;;;17.00;7.13;;;;;;;2.21;100.00;99586.41;5224866;28;20484;-77
2021/01/23 02:52:19;;;;;;;21.67;7.68;;;;;;;2.19;100.00;99577.78;5223941;28;20377;-77
2021/01/23 02:54:56;;;;;;;18.48;7.00;;;;;;;2.24;100.00;99572.91;5224729;28;20032;-77
2021/01/23 02:57:27;;;;;;;19.30;7.50;;;;;;;2.16;100.00;99573.63;5225128;28;20021;-77
2021/01/23 03:00:05;;;;;;;20.00;8.73;;;;;;;2.13;100.00;99570.44;5224858;28;20063;-77
2021/01/23 03:02:41;;;;;;;20.63;7.13;;;;;;;2.05;100.00;99565.84;5224771;28;20052;-77
2021/01/23 03:05:13;;;;;;;20.60;8.00;;;;;;;2.03;100.00;99565.16;5224534;28;20059;-77
2021/01/23 03:07:46;;;;;;;24.52;7.35;;;;;;;2.00;100.00;99558.31;5223748;28;20086;-77
2021/01/23 03:10:16;;;;;;;14.38;6.75;;;;;;;1.98;100.00;99546.25;5224668;28;20434;-77
2021/01/23 03:12:47;;;;;;;14.80;6.70;;;;;;;1.94;100.00;99555.44;5222804;28;20078;-77
2021/01/23 03:15:17;;;;;;;20.17;7.93;;;;;;;1.89;100.00;99547.91;5224720;28;20464;-77
2021/01/23 03:17:48;;;;;;;21.75;7.50;;;;;;;1.84;100.00;99546.69;5207032;28;20023;-77
2021/01/23 03:20:18;;;;;;;11.32;6.32;;;;;;;1.79;100.00;99542.66;5223859;28;20047;-77
2021/01/23 03:22:49;;;;;;;12.35;6.50;;;;;;;1.74;100.00;99534.31;5224339;28;20404;-77
2021/01/23 03:25:19;;;;;;;18.10;7.40;;;;;;;1.70;100.00;99538.19;5221187;28;20092;-77
2021/01/23 03:27:50;;;;;;;14.15;7.10;;;;;;;1.65;100.00;99544.91;5224690;28;20048;-77
2021/01/23 03:30:22;;;;;;;15.90;6.45;;;;;;;1.63;100.00;99547.69;5224420;28;20023;-77
2021/01/23 03:32:53;;;;;;;16.02;6.95;;;;;;;1.60;100.00;99528.63;5223756;28;20459;-77
2021/01/23 03:35:23;;;;;;;18.50;7.28;;;;;;;1.53;100.00;99526.53;5223425;28;20053;-78
2021/01/23 03:37:54;;;;;;;20.05;7.93;;;;;;;1.52;100.00;99535.44;5224607;28;20033;-78
2021/01/23 03:40:24;;;;;;;17.08;7.00;;;;;;;1.47;100.00;99535.03;5224295;28;20052;-77
2021/01/23 03:42:55;;;;;;;17.38;6.38;;;;;;;1.39;100.00;99537.53;5224212;28;20021;-77
2021/01/23 03:45:25;;;;;;;21.05;7.80;;;;;;;1.40;100.00;99538.38;5224231;28;20128;-77
2021/01/23 03:47:56;;;;;;;16.65;6.85;;;;;;;1.37;100.00;99541.31;5225097;28;20021;-77
2021/01/23 03:50:28;;;;;;;16.13;7.10;;;;;;;1.41;100.00;99553.28;5223602;28;20070;-77
2021/01/23 03:52:58;;;;;;;20.08;7.50;;;;;;;1.45;100.00;99544.06;5222844;28;20037;-78
2021/01/23 03:55:28;;;;;;;17.25;7.25;;;;;;;1.53;100.00;99547.69;5224055;28;20150;-78
2021/01/23 03:57:59;;;;;;;18.25;6.90;;;;;;;1.57;100.00;99550.91;5224822;28;20025;-77
2021/01/23 04:00:29;;;;;;;20.05;7.20;;;;;;;1.61;100.00;99540.84;5223981;28;20059;-77
2021/01/23 04:03:00;;;;;;;15.50;7.05;;;;;;;1.70;100.00;99529.44;5224261;28;20112;-77
2021/01/23 04:05:30;;;;;;;17.55;7.10;;;;;;;1.69;100.00;99538.34;5223099;28;20017;-77
2021/01/23 04:08:01;;;;;;;14.90;7.10;;;;;;;1.69;100.00;99539.19;5224870;28;20032;-77
2021/01/23 04:10:32;;;;;;;13.52;6.90;;;;;;;1.68;100.00;99532.22;5223824;28;20104;-78
2021/01/23 04:13:03;;;;;;;16.10;6.97;;;;;;;1.75;100.00;99529.84;5210165;28;20112;-77
2021/01/23 04:15:33;;;;;;;18.73;7.80;;;;;;;1.73;100.00;99537.09;5224759;28;20116;-77
2021/01/23 04:18:04;;;;;;;14.73;6.30;;;;;;;1.76;100.00;99528.91;5224296;28;20496;-77
2021/01/23 04:20:35;;;;;;;18.90;7.85;;;;;;;1.68;100.00;99523.47;5223028;28;20035;-78
2021/01/23 04:23:05;;;;;;;22.35;6.90;;;;;;;1.63;100.00;99531.81;5223726;28;20025;-78
2021/01/23 04:25:36;;;;;;;15.38;5.85;;;;;;;1.62;100.00;99539.91;5236184;28;20033;-77
2021/01/23 04:28:06;;;;;;;13.68;6.53;;;;;;;1.50;100.00;99532.09;5227928;28;20472;-77
2021/01/23 04:30:37;;;;;;;17.13;6.32;;;;;;;1.49;100.00;99540.19;5227702;28;20107;-78
2021/01/23 04:33:08;;;;;;;19.00;6.72;;;;;;;1.45;100.00;99536.97;5226073;28;20072;-78
2021/01/23 04:35:38;;;;;;;14.70;7.25;;;;;;;1.43;100.00;99535.47;5227815;28;20025;-78
2021/01/23 04:38:09;;;;;;;24.33;6.70;;;;;;;1.39;100.00;99534.91;5228291;28;20017;-77
2021/01/23 04:40:39;;;;;;;17.90;7.60;;;;;;;1.37;100.00;99526.28;5230975;28;20318;-77
2021/01/23 04:43:10;;;;;;;21.90;7.40;;;;;;;1.34;100.00;99531.00;5230410;28;20032;-77
2021/01/23 04:45:40;;;;;;;19.02;7.63;;;;;;;1.32;100.00;99532.97;5230516;28;20056;-77
2021/01/23 04:48:11;;;;;;;15.32;7.50;;;;;;;1.29;100.00;99529.59;5230653;28;20021;-77
2021/01/23 04:50:41;;;;;;;14.45;7.13;;;;;;;1.28;100.00;99527.94;5230275;28;20039;-77
2021/01/23 04:53:13;;;;;;;27.30;9.02;;;;;;;1.26;100.00;99529.91;5231349;28;20044;-77
2021/01/23 04:55:44;;;;;;;17.20;7.57;;;;;;;1.18;100.00;99524.47;5229549;28;20028;-77
2021/01/23 04:58:14;;;;;;;16.20;7.45;;;;;;;1.15;100.00;99526.53;5230855;28;20032;-77
2021/01/23 05:00:45;;;;;;;19.85;7.82;;;;;;;1.15;100.00;99515.97;5227828;28;20029;-77
2021/01/23 05:03:15;;;;;;;18.95;7.47;;;;;;;1.17;100.00;99525.44;5227835;28;20025;-77
2021/01/23 05:06:05;;;;;;;18.17;7.53;;;;;;;1.14;100.00;99531.00;5227536;28;20480;-77
2021/01/23 05:08:37;;;;;;;18.42;7.65;;;;;;;1.16;100.00;99531.72;5226582;28;20025;-77
2021/01/23 05:11:07;;;;;;;17.27;8.00;;;;;;;1.20;100.00;99541.00;5229251;28;20028;-77
2021/01/23 05:13:38;;;;;;;18.33;8.30;;;;;;;1.25;100.00;99530.84;5217337;28;20077;-77
2021/01/23 05:16:24;;;;;;;19.83;8.50;;;;;;;1.29;100.00;99531.41;5231244;28;20104;-77
2021/01/23 05:18:56;;;;;;;24.48;8.98;;;;;;;1.29;100.00;99534.88;5230362;28;20035;-77
2021/01/23 05:21:28;;;;;;;20.67;8.52;;;;;;;1.25;100.00;99533.50;5230420;28;20105;-77
2021/01/23 05:24:07;;;;;;;19.30;8.35;;;;;;;1.33;100.00;99524.06;5228142;28;20488;-77
2021/01/23 05:26:39;;;;;;;22.85;8.55;;;;;;;1.29;100.00;99526.97;5229065;28;20439;-77
2021/01/23 05:29:12;;;;;;;21.40;8.00;;;;;;;1.28;100.00;99517.38;5230408;28;20023;-77
2021/01/23 05:31:43;;;;;;;27.08;7.88;;;;;;;1.31;100.00;99512.81;5230222;28;20020;-77
2021/01/23 05:34:27;;;;;;;21.33;7.70;;;;;;;1.29;100.00;99520.84;5208706;28;20094;-77
2021/01/23 05:36:59;;;;;;;20.02;8.32;;;;;;;1.30;100.00;99509.31;5230741;28;20063;-77
2021/01/23 05:39:47;;;;;;;15.85;8.07;;;;;;;1.31;100.00;99510.16;5230579;28;20380;-77
2021/01/23 05:42:18;;;;;;;22.83;8.10;;;;;;;1.27;100.00;99507.78;5229746;28;20151;-77
2021/01/23 05:45:06;;;;;;;22.25;8.52;;;;;;;1.25;100.00;99512.34;5227061;28;20100;-77
2021/01/23 05:47:37;;;;;;;22.23;8.30;;;;;;;1.20;100.00;99511.94;5226445;28;20036;-77
2021/01/23 05:50:09;;;;;;;19.08;8.50;;;;;;;1.18;100.00;99516.53;5226588;28;20055;-77
2021/01/23 05:52:39;;;;;;;16.10;7.70;;;;;;;1.13;100.00;99524.06;5226014;28;20491;-77
2021/01/23 05:55:11;;;;;;;21.38;8.48;;;;;;;1.07;100.00;99521.97;5226268;28;20032;-77
2021/01/23 05:57:41;;;;;;;22.70;8.60;;;;;;;1.04;100.00;99520.41;5226336;28;20494;-77
2021/01/23 06:00:14;;;;;;;22.08;8.45;;;;;;;1.08;100.00;99518.34;5231635;28;20120;-77
2021/01/23 06:02:45;;;;;;;26.75;9.30;;;;;;;1.02;100.00;99514.44;5216390;28;20028;-77
2021/01/23 06:05:15;;;;;;;21.02;9.10;;;;;;;0.99;100.00;99532.38;5231610;28;20545;-78
2021/01/23 06:07:47;;;;;;;26.52;9.73;;;;;;;0.97;100.00;99519.31;5231889;28;20025;-79
2021/01/23 06:10:21;;;;;;;20.90;8.88;;;;;;;0.94;100.00;99524.03;5228424;28;20017;-77
2021/01/23 06:12:53;;;;;;;24.92;9.32;;;;;;;0.88;100.00;99527.22;5227344;28;20061;-77
2021/01/23 06:15:32;;;;;;;22.95;9.15;;;;;;;0.87;100.00;99533.47;5230641;28;20092;-77
2021/01/23 06:18:05;;;;;;;28.98;9.75;;;;;;;0.83;100.00;99534.72;5229731;28;20488;-77
2021/01/23 06:20:39;;;;;;;23.25;9.82;;;;;;;0.85;100.00;99530.13;5230445;28;20530;-77
2021/01/23 06:23:11;;;;;;;23.98;9.90;;;;;;;0.86;100.00;99529.16;5229950;28;20025;-77
2021/01/23 06:25:49;;;;;;;23.38;9.98;;;;;;;0.88;100.00;99535.97;5237123;28;20490;-76
2021/01/23 06:28:20;;;;;;;33.30;10.38;;;;;;;0.87;100.00;99544.88;5229806;28;20493;-77
2021/01/23 06:30:52;;;;;;;27.77;10.43;;;;;;;0.86;100.00;99537.09;5231400;28;20392;-78
2021/01/23 06:33:23;;;;;;;27.63;10.00;;;;;;;0.92;100.00;99542.66;5217651;28;20029;-78
2021/01/23 06:36:13;;;;;;;25.20;10.30;;;;;;;0.87;100.00;99544.88;5231228;28;20108;-77
2021/01/23 06:39:03;;;;;;;30.25;10.05;;;;;;;0.87;100.00;99538.75;5231377;28;20053;-77
2021/01/23 06:41:36;;;;;;;26.52;10.27;;;;;;;0.85;100.00;99538.88;5231482;28;20021;-77
2021/01/23 06:44:06;;;;;;;30.63;10.18;;;;;;;0.84;100.00;99539.84;5230544;28;20313;-77
2021/01/23 06:46:39;;;;;;;24.73;10.40;;;;;;;0.86;100.00;99545.00;5228050;28;20091;-78
2021/01/23 06:49:12;;;;;;;26.05;9.93;;;;;;;0.83;100.00;99548.75;5228104;28;20031;-77
2021/01/23 06:51:43;;;;;;;27.83;10.48;;;;;;;0.83;100.00;99548.75;5227244;28;20395;-79
2021/01/23 06:54:15;;;;;;;23.27;9.43;;;;;;;0.80;100.00;99545.53;5228784;28;20123;-78
2021/01/23 06:56:47;;;;;;;24.60;9.95;;;;;;;0.78;100.00;99546.50;5229094;28;20021;-76
2021/01/23 06:59:26;;;;;;;20.80;9.30;;;;;;;0.74;100.00;99552.19;5228212;28;20028;-77
2021/01/23 07:02:07;;;;;;;27.02;11.10;;;;;;;0.73;100.00;99554.00;5228702;28;20025;-78
2021/01/23 07:04:46;;;;;;;26.92;9.65;;;;;;;0.73;100.00;99556.63;5227911;28;20111;-76
2021/01/23 07:07:18;;;;;;;28.23;10.40;;;;;;;0.71;100.00;99560.41;5226899;28;20013;-76
2021/01/23 07:09:50;;;;;;;25.83;10.60;;;;;;;0.71;100.00;99565.69;5228395;28;20031;-78
2021/01/23 07:12:39;;;;;;;25.48;10.40;;;;;;;0.68;100.00;99569.41;5227562;28;20060;-78
2021/01/23 07:15:13;;;;;;;28.45;9.98;;;;;;;0.62;100.00;99572.59;5229799;28;20120;-79
2021/01/23 07:17:45;;;;;;;25.80;9.10;;;;;;;0.61;100.00;99572.72;5225590;28;20021;-78
2021/01/23 07:20:17;;;;;;;25.35;9.10;;;;;;;0.58;100.00;99571.19;5226635;28;20078;-79
2021/01/23 07:22:47;;;;;;;26.85;9.48;;;;;;;0.54;100.00;99577.69;5226659;28;20033;-79
2021/01/23 07:25:18;;;;;;;29.83;11.05;;;;;;;0.56;100.00;99578.41;5213653;28;20029;-79
2021/01/23 07:27:48;;;;;;;30.45;9.55;;;;;;;0.56;100.00;99580.22;5225695;28;20032;-79
2021/01/23 07:30:19;;;;;;;24.85;9.15;;;;;;;0.53;100.00;99578.66;5227341;28;20067;-80
2021/01/23 07:32:49;;;;;;;26.88;10.25;;;;;;;0.53;100.00;99578.66;5226769;28;20025;-79
2021/01/23 07:35:20;;;;;;;27.58;10.02;;;;;;;0.54;100.00;99585.59;5228939;28;20024;-78
2021/01/23 07:37:53;;;;;;;31.85;10.65;;;;;;;0.61;100.00;99575.38;5227599;28;20024;-78
2021/01/23 07:40:26;;;;;;;25.70;10.25;;;;;;;0.72;100.00;99577.91;5228446;28;20396;-79
2021/01/23 07:43:02;;;;;;;24.27;10.32;;;;;;;0.76;100.00;99577.50;5226723;28;20028;-78
2021/01/23 07:45:33;;;;;;;26.13;9.00;;;;;;;0.77;100.00;99579.16;5228867;28;20036;-78
2021/01/23 07:48:06;;;;;;;26.95;9.95;;;;;;;0.85;100.00;99575.84;5228157;28;20130;-79
2021/01/23 07:50:39;;;;;;;24.13;9.35;;;;;;;0.87;100.00;99575.72;5229179;28;20369;-81
2021/01/23 07:53:23;;;;;;;25.85;11.60;;;;;;;0.89;100.00;99569.31;5227566;28;20131;-79
2021/01/23 07:55:53;;;;;;;27.73;9.32;;;;;;;0.90;100.00;99576.25;5228069;28;20117;-80
2021/01/23 07:58:25;;;;;;;28.05;9.55;;;;;;;0.92;100.00;99573.50;5227621;28;20108;-78
2021/01/23 08:00:55;;;;;;;29.98;9.45;;;;;;;1.03;100.00;99576.03;5231602;28;20021;-78
2021/01/23 08:03:35;;;;;;;24.88;9.63;;;;;;;1.24;100.00;99578.56;5231547;28;20039;-79
2021/01/23 08:06:21;;;;;;;22.15;8.27;;;;;;;1.38;100.00;99580.78;5231269;28;20036;-78
2021/01/23 08:08:54;;;;;;;24.08;8.40;;;;;;;1.51;100.00;99580.53;5231479;28;20040;-78
2021/01/23 08:11:35;;;;;;;16.73;8.15;;;;;;;1.67;100.00;99579.97;5230406;28;20040;-78
2021/01/23 08:14:09;;;;;;;20.50;8.13;;;;;;;1.73;100.00;99574.13;5197134;28;20021;-79
2021/01/23 08:16:54;;;;;;;22.10;8.98;;;;;;;1.84;100.00;99575.78;5226443;28;20036;-78
2021/01/23 08:19:24;;;;;;;18.00;6.90;;;;;;;1.87;100.00;99573.69;5228941;28;20284;-79
2021/01/23 08:22:06;;;;;;;20.30;8.20;;;;;;;1.92;100.00;99574.09;5230495;28;20039;-79
2021/01/23 08:24:38;;;;;;;21.25;8.07;;;;;;;1.96;100.00;99578.13;5237258;28;20040;-79
2021/01/23 08:27:20;;;;;;;18.85;7.70;;;;;;;2.01;100.00;99567.13;5229721;28;20029;-79
2021/01/23 08:29:51;;;;;;;27.42;7.80;;;;;;;2.12;100.00;99579.34;5229411;28;20056;-80
2021/01/23 08:32:22;;;;;;;16.27;6.97;;;;;;;2.15;100.00;99574.59;5230873;28;20049;-79
2021/01/23 08:34:52;;;;;;;15.77;7.32;;;;;;;2.21;100.00;99570.53;5228731;28;20111;-79
2021/01/23 08:37:22;;;;;;;16.52;6.70;;;;;;;2.32;100.00;99565.91;5229376;28;20119;-79
2021/01/23 08:39:53;;;;;;;17.00;7.00;;;;;;;2.36;100.00;99570.91;5229828;28;20291;-80
2021/01/23 08:42:24;;;;;;;15.85;7.82;;;;;;;2.38;100.00;99564.50;5229185;28;20476;-79
2021/01/23 08:44:55;;;;;;;13.65;6.32;;;;;;;2.45;100.00;99567.38;5229956;28;20017;-79
2021/01/23 08:47:25;;;;;;;21.48;7.38;;;;;;;2.52;100.00;99571.97;5229992;28;20032;-79
2021/01/23 08:49:56;;;;;;;17.92;6.45;;;;;;;2.56;100.00;99575.13;5231377;28;20006;-82
2021/01/23 08:52:26;;;;;;;22.90;7.70;;;;;;;2.57;100.00;99571.53;5238665;28;20058;-84
2021/01/23 08:54:56;;;;;;;15.52;6.97;;;;;;;2.61;100.00;99564.97;5229792;28;20021;-80
2021/01/23 08:57:27;;;;;;;16.48;6.40;;;;;;;2.71;100.00;99562.25;5233096;28;20033;-80
2021/01/23 08:59:57;;;;;;;19.85;6.35;;;;;;;2.77;100.00;99556.38;5233193;28;20111;-84
2021/01/23 09:02:28;;;;;;;17.70;6.93;;;;;;;2.78;100.00;99561.53;5233340;28;20079;-78
2021/01/23 09:04:58;;;;;;;19.30;6.68;;;;;;;2.81;100.00;99557.72;5234514;28;20033;-79
2021/01/23 09:07:29;;;;;;;18.80;6.88;;;;;;;2.85;100.00;99552.00;5234335;28;20035;-79
2021/01/23 09:09:59;;;;;;;12.93;6.50;;;;;;;2.86;100.00;99544.88;5231790;28;20080;-80
2021/01/23 09:12:30;;;;;;;15.25;6.22;;;;;;;2.90;100.00;99548.91;5232348;28;20114;-78
2021/01/23 09:15:01;;;;;;;13.27;6.72;;;;;;;2.94;100.00;99537.03;5233695;28;20041;-78
2021/01/23 09:17:31;;;;;;;13.50;6.25;;;;;;;2.98;100.00;99540.22;5234800;28;20043;-80
2021/01/23 09:20:03;;;;;;;18.17;6.82;;;;;;;3.07;100.00;99539.34;5233408;28;20024;-79
2021/01/23 09:22:33;;;;;;;14.68;6.60;;;;;;;3.09;100.00;99538.19;5233057;28;20047;-79
2021/01/23 09:25:05;;;;;;;13.15;6.78;;;;;;;3.19;100.00;99532.00;5232889;28;20033;-79
2021/01/23 09:27:36;;;;;;;19.95;7.78;;;;;;;3.20;100.00;99525.69;5233691;28;20025;-78
2021/01/23 09:30:07;;;;;;;18.30;7.47;;;;;;;3.23;100.00;99528.06;5232991;28;20031;-79
2021/01/23 09:32:37;;;;;;;17.08;7.50;;;;;;;3.25;100.00;99524.25;5231694;28;20025;-80
2021/01/23 09:35:08;;;;;;;25.13;9.00;;;;;;;3.28;100.00;99518.66;5232630;28;20029;-81
2021/01/23 09:37:39;;;;;;;25.77;9.32;;;;;;;3.34;100.00;99518.06;5233161;28;20028;-82
2021/01/23 09:40:10;;;;;;;27.75;10.32;;;;;;;3.40;100.00;99523.72;5232655;28;20090;-79
2021/01/23 09:42:40;;;;;;;18.95;7.45;;;;;;;3.50;100.00;99513.88;5233634;28;20460;-78
2021/01/23 09:45:11;;;;;;;17.98;7.80;;;;;;;3.60;100.00;99507.47;5230794;28;20388;-78
2021/01/23 09:47:42;;;;;;;18.95;7.05;;;;;;;3.74;100.00;99505.28;5233277;28;20115;-78
2021/01/23 09:50:13;;;;;;;14.13;7.00;;;;;;;3.93;100.00;99509.56;5231677;28;20047;-77
2021/01/23 09:52:43;;;;;;;28.10;10.00;;;;;;;4.00;100.00;99510.59;5210167;28;20033;-78
2021/01/23 09:55:14;;;;;;;21.02;9.07;;;;;;;4.12;100.00;99514.66;5220152;28;20571;-79
2021/01/23 09:57:45;;;;;;;17.95;8.10;;;;;;;4.18;100.00;99510.53;5227344;28;20098;-78
2021/01/23 10:00:16;;;;;;;17.75;6.88;;;;;;;4.25;100.00;99512.38;5226419;28;20021;-77
2021/01/23 10:02:46;;;;;;;15.73;6.55;;;;;;;4.28;100.00;99505.94;5226562;28;20449;-78
2021/01/23 10:05:17;;;;;;;19.45;7.00;;;;;;;4.29;100.00;99497.81;5225973;28;20107;-78
2021/01/23 10:07:47;;;;;;;11.68;6.55;;;;;;;4.31;100.00;99503.78;5227577;28;20025;-79
2021/01/23 10:10:18;;;;;;;14.80;6.47;;;;;;;4.51;100.00;99500.88;5228642;28;20028;-79
2021/01/23 10:12:48;;;;;;;12.52;6.57;;;;;;;4.57;100.00;99509.06;5227970;28;20079;-79
2021/01/23 10:15:19;;;;;;;11.95;6.13;;;;;;;4.74;100.00;99506.44;5227670;28;20021;-79
2021/01/23 10:17:49;;;;;;;20.30;7.32;;;;;;;4.79;100.00;99501.47;5228450;28;20029;-79
2021/01/23 10:20:20;;;;;;;17.48;6.05;;;;;;;4.88;100.00;99501.34;5227144;28;20029;-78
2021/01/23 10:22:50;;;;;;;14.05;6.30;;;;;;;4.83;100.00;99497.50;5228426;28;20396;-78
2021/01/23 10:25:21;;;;;;;13.73;5.47;;;;;;;4.89;100.00;99499.50;5228105;28;20033;-78
2021/01/23 10:27:52;;;;;;;11.77;5.15;;;;;;;4.98;100.00;99495.06;5228656;28;20032;-78
2021/01/23 10:30:23;;;;;;;12.45;5.63;;;;;;;5.03;100.00;99492.75;5229224;28;20143;-78
2021/01/23 10:32:54;;;;;;;9.90;4.80;;;;;;;5.13;100.00;99499.56;5228759;28;20111;-78
2021/01/23 10:35:24;;;;;;;11.57;5.00;;;;;;;5.14;100.00;99495.06;5229869;28;20108;-79
2021/01/23 10:37:55;;;;;;;9.73;4.60;;;;;;;5.22;100.00;99487.13;5230200;28;20506;-78
2021/01/23 10:40:25;;;;;;;21.30;5.20;;;;;;;5.23;100.00;99493.28;5229908;28;20496;-78
2021/01/23 10:42:56;;;;;;;16.13;4.88;;;;;;;5.13;100.00;99496.91;5211897;28;20088;-78
2021/01/23 10:45:26;;;;;;;13.82;4.65;;;;;;;5.10;100.00;99493.75;5229003;28;20028;-78
2021/01/23 10:47:57;;;;;;;12.52;4.22;;;;;;;5.14;100.00;99495.06;5229216;28;20111;-79
2021/01/23 10:50:27;;;;;;;11.70;4.55;;;;;;;5.28;100.00;99493.59;5229152;28;20029;-78
2021/01/23 10:52:58;;;;;;;15.13;4.60;;;;;;;5.23;100.00;99491.44;5229010;28;20059;-78
2021/01/23 10:55:28;;;;;;;17.02;4.40;;;;;;;5.24;100.00;99490.44;5228936;28;20061;-78
2021/01/23 10:57:59;;;;;;;12.02;4.50;;;;;;;5.14;100.00;99487.94;5229797;28;20032;-79
2021/01/23 11:00:29;;;;;;;14.23;4.35;;;;;;;5.06;100.00;99487.09;5228655;28;20111;-82
2021/01/23 11:03:00;;;;;;;12.15;4.75;;;;;;;5.01;100.00;99479.59;5228367;28;20040;-78
2021/01/23 11:05:30;;;;;;;12.88;4.95;;;;;;;4.89;100.00;99481.75;5228818;28;20546;-79
2021/01/23 11:08:01;;;;;;;14.02;4.97;;;;;;;4.93;100.00;99484.91;5211117;28;20036;-78
2021/01/23 11:10:31;;;;;;;12.65;4.75;;;;;;;4.97;100.00;99474.78;5229003;28;20055;-79
2021/01/23 11:13:02;;;;;;;14.68;4.78;;;;;;;5.03;100.00;99474.13;5215635;28;20033;-79
2021/01/23 11:15:33;;;;;;;18.10;4.28;;;;;;;5.06;100.00;99477.28;5229210;28;20021;-79
2021/01/23 11:18:03;;;;;;;16.60;4.78;;;;;;;5.00;100.00;99469.97;5229058;28;20028;-79
2021/01/23 11:20:34;;;;;;;19.77;5.47;;;;;;;5.03;100.00;99467.00;5230325;28;20036;-79
2021/01/23 11:23:04;;;;;;;12.20;4.50;;;;;;;5.07;100.00;99468.31;5230568;28;20032;-79
2021/01/23 11:25:35;;;;;;;14.13;4.95;;;;;;;5.09;100.00;99465.50;5235013;28;20139;-80
2021/01/23 11:28:05;;;;;;;11.80;5.07;;;;;;;5.17;100.00;99461.03;5229561;28;20053;-79
2021/01/23 11:30:36;;;;;;;16.50;4.80;;;;;;;5.25;100.00;99460.19;5231368;28;20025;-79
2021/01/23 11:33:06;;;;;;;14.55;4.53;;;;;;;5.35;100.00;99455.53;5229103;28;20043;-79
2021/01/23 11:35:37;;;;;;;13.13;5.18;;;;;;;5.44;100.00;99445.72;5229095;28;20055;-79
2021/01/23 11:38:07;;;;;;;13.40;4.68;;;;;;;5.60;100.00;99439.56;5228965;28;20494;-79
2021/01/23 11:40:38;;;;;;;13.00;4.55;;;;;;;5.64;100.00;99443.53;5229937;28;20029;-78
2021/01/23 11:43:12;;;;;;;11.48;5.32;;;;;;;5.81;100.00;99442.50;5228682;28;20480;-79
2021/01/23 11:45:43;;;;;;;13.95;4.35;;;;;;;5.90;100.00;99441.50;5229049;28;20377;-78
2021/01/23 11:48:13;;;;;;;12.80;4.00;;;;;;;5.87;100.00;99439.19;5227655;28;20083;-78